sensor_id;sensor_type;location;lat;lon;timestamp;pressure;altitude;pressure_sealevel;temperature;humidity
2397;BME280;1209;48.410;9.054;2022-11-15T00:02:04;96038.66;;;8.15;100.00
2397;BME280;1209;48.410;9.054;2022-11-15T00:04:30;96027.47;;;8.06;100.00
2397;BME280;1209;48.410;9.054;2022-11-15T00:06:55;96027.94;;;7.94;100.00
2397;BME280;1209;48.410;9.054;2022-11-15T00:09:20;96024.84;;;7.90;100.00
2397;BME280;1209;48.410;9.054;2022-11-15T00:11:46;96026.31;;;7.93;100.00
2397;BME280;1209;48.410;9.054;2022-11-15T00:14:11;96019.97;;;7.87;100.00
2397;BME280;1209;48.410;9.054;2022-11-15T00:16:36;96019.63;;;7.98;100.00
2397;BME280;1209;48.410;9.054;2022-11-15T00:19:02;96026.66;;;7.73;100.00
2397;BME280;1209;48.410;9.054;2022-11-15T00:21:27;96021.63;;;7.80;100.00
2397;BME280;1209;48.410;9.054;2022-11-15T00:23:52;96013.34;;;7.60;100.00
2397;BME280;1209;48.410;9.054;2022-11-15T00:26:18;96020.94;;;7.53;100.00
2397;BME280;1209;48.410;9.054;2022-11-15T00:28:43;96013.94;;;7.30;100.00
2397;BME280;1209;48.410;9.054;2022-11-15T00:31:12;96022.38;;;7.23;100.00
2397;BME280;1209;48.410;9.054;2022-11-15T00:33:38;96019.16;;;7.38;100.00
2397;BME280;1209;48.410;9.054;2022-11-15T00:36:06;96018.84;;;7.41;100.00
2397;BME280;1209;48.410;9.054;2022-11-15T00:38:35;96006.56;;;7.01;100.00
2397;BME280;1209;48.410;9.054;2022-11-15T00:41:01;96002.41;;;7.16;100.00
2397;BME280;1209;48.410;9.054;2022-11-15T00:43:27;96011.69;;;7.35;100.00
2397;BME280;1209;48.410;9.054;2022-11-15T00:45:52;96000.16;;;7.37;100.00
2397;BME280;1209;48.410;9.054;2022-11-15T00:48:18;96006.47;;;7.26;100.00
2397;BME280;1209;48.410;9.054;2022-11-15T00:50:43;95995.72;;;7.05;100.00
2397;BME280;1209;48.410;9.054;2022-11-15T00:53:09;96009.19;;;7.09;100.00
2397;BME280;1209;48.410;9.054;2022-11-15T00:55:35;96002.84;;;6.95;100.00
2397;BME280;1209;48.410;9.054;2022-11-15T00:58:00;95995.09;;;7.11;100.00
2397;BME280;1209;48.410;9.054;2022-11-15T01:00:26;95998.31;;;7.05;100.00
2397;BME280;1209;48.410;9.054;2022-11-15T01:02:51;96002.75;;;7.21;100.00
2397;BME280;1209;48.410;9.054;2022-11-15T01:05:16;95996.19;;;7.09;100.00
2397;BME280;1209;48.410;9.054;2022-11-15T01:07:42;95994.75;;;7.06;100.00
2397;BME280;1209;48.410;9.054;2022-11-15T01:10:07;95993.13;;;7.05;100.00
2397;BME280;1209;48.410;9.054;2022-11-15T01:12:33;95990.69;;;7.04;100.00
2397;BME280;1209;48.410;9.054;2022-11-15T01:14:58;95994.59;;;7.08;100.00
2397;BME280;1209;48.410;9.054;2022-11-15T01:17:24;95987.41;;;6.85;100.00
2397;BME280;1209;48.410;9.054;2022-11-15T01:19:49;95990.88;;;7.10;100.00
2397;BME280;1209;48.410;9.054;2022-11-15T01:22:15;95987.69;;;6.74;100.00
2397;BME280;1209;48.410;9.054;2022-11-15T01:24:40;95981.59;;;7.00;100.00
2397;BME280;1209;48.410;9.054;2022-11-15T01:27:06;95982.81;;;6.71;100.00
2397;BME280;1209;48.410;9.054;2022-11-15T01:29:31;95971.50;;;6.80;100.00
2397;BME280;1209;48.410;9.054;2022-11-15T01:31:56;95979.31;;;6.88;100.00
2397;BME280;1209;48.410;9.054;2022-11-15T01:34:22;95975.06;;;6.87;100.00
2397;BME280;1209;48.410;9.054;2022-11-15T01:36:47;95974.25;;;6.79;100.00
2397;BME280;1209;48.410;9.054;2022-11-15T01:39:12;95970.53;;;6.89;100.00
2397;BME280;1209;48.410;9.054;2022-11-15T01:41:37;95971.16;;;6.75;100.00
2397;BME280;1209;48.410;9.054;2022-11-15T01:46:56;95963.41;;;6.91;100.00
2397;BME280;1209;48.410;9.054;2022-11-15T01:49:23;95957.06;;;6.86;100.00
2397;BME280;1209;48.410;9.054;2022-11-15T01:51:49;95953.97;;;6.82;100.00
2397;BME280;1209;48.410;9.054;2022-11-15T01:54:17;95955.78;;;6.90;100.00
2397;BME280;1209;48.410;9.054;2022-11-15T01:56:51;95949.13;;;6.87;100.00
2397;BME280;1209;48.410;9.054;2022-11-15T01:59:18;95946.16;;;6.66;100.00
2397;BME280;1209;48.410;9.054;2022-11-15T02:01:44;95949.28;;;6.78;100.00
2397;BME280;1209;48.410;9.054;2022-11-15T02:04:13;95948.03;;;6.48;100.00
2397;BME280;1209;48.410;9.054;2022-11-15T02:06:41;95941.59;;;6.60;100.00
2397;BME280;1209;48.410;9.054;2022-11-15T02:09:07;95947.31;;;6.72;100.00
2397;BME280;1209;48.410;9.054;2022-11-15T02:11:33;95944.41;;;6.75;100.00
2397;BME280;1209;48.410;9.054;2022-11-15T02:13:59;95942.91;;;6.64;100.00
2397;BME280;1209;48.410;9.054;2022-11-15T02:34:54;95913.63;;;6.29;100.00
2397;BME280;1209;48.410;9.054;2022-11-15T02:37:34;95911.00;;;6.21;100.00
2397;BME280;1209;48.410;9.054;2022-11-15T02:42:45;95916.50;;;6.18;100.00
2397;BME280;1209;48.410;9.054;2022-11-15T02:45:35;95903.88;;;6.23;100.00
2397;BME280;1209;48.410;9.054;2022-11-15T02:48:03;95901.13;;;6.25;100.00
2397;BME280;1209;48.410;9.054;2022-11-15T02:50:32;95900.16;;;6.26;100.00
2397;BME280;1209;48.410;9.054;2022-11-15T02:52:58;95889.78;;;6.26;100.00
2397;BME280;1209;48.410;9.054;2022-11-15T02:55:31;95897.09;;;6.30;100.00
2397;BME280;1209;48.410;9.054;2022-11-15T03:06:22;95886.50;;;6.16;100.00
2397;BME280;1209;48.410;9.054;2022-11-15T03:09:02;95877.72;;;6.09;100.00
2397;BME280;1209;48.410;9.054;2022-11-15T03:11:32;95879.06;;;6.21;100.00
2397;BME280;1209;48.410;9.054;2022-11-15T03:14:29;95876.97;;;6.24;100.00
2397;BME280;1209;48.410;9.054;2022-11-15T03:19:48;95875.03;;;6.18;100.00
2397;BME280;1209;48.410;9.054;2022-11-15T03:22:17;95869.03;;;6.18;100.00
2397;BME280;1209;48.410;9.054;2022-11-15T03:24:45;95868.38;;;6.24;100.00
2397;BME280;1209;48.410;9.054;2022-11-15T03:27:15;95861.25;;;6.18;100.00
2397;BME280;1209;48.410;9.054;2022-11-15T03:29:45;95858.50;;;6.27;100.00
2397;BME280;1209;48.410;9.054;2022-11-15T03:32:34;95860.13;;;6.20;100.00
2397;BME280;1209;48.410;9.054;2022-11-15T03:37:35;95852.88;;;6.48;100.00
2397;BME280;1209;48.410;9.054;2022-11-15T03:40:03;95851.28;;;6.55;100.00
2397;BME280;1209;48.410;9.054;2022-11-15T03:45:14;95847.50;;;6.34;100.00
2397;BME280;1209;48.410;9.054;2022-11-15T03:47:49;95848.47;;;6.24;100.00
2397;BME280;1209;48.410;9.054;2022-11-15T03:50:21;95856.75;;;6.36;100.00
2397;BME280;1209;48.410;9.054;2022-11-15T03:52:48;95844.88;;;6.17;100.00
2397;BME280;1209;48.410;9.054;2022-11-15T03:55:17;95847.91;;;6.13;100.00
2397;BME280;1209;48.410;9.054;2022-11-15T03:57:43;95845.53;;;6.19;100.00
2397;BME280;1209;48.410;9.054;2022-11-15T04:00:10;95838.75;;;6.35;100.00
2397;BME280;1209;48.410;9.054;2022-11-15T04:02:36;95838.75;;;6.35;100.00
2397;BME280;1209;48.410;9.054;2022-11-15T04:05:01;95836.31;;;6.25;100.00
2397;BME280;1209;48.410;9.054;2022-11-15T04:07:27;95835.34;;;6.34;100.00
2397;BME280;1209;48.410;9.054;2022-11-15T04:09:52;95837.88;;;6.10;100.00
2397;BME280;1209;48.410;9.054;2022-11-15T04:12:35;95831.78;;;6.27;100.00
2397;BME280;1209;48.410;9.054;2022-11-15T04:17:51;95830.97;;;6.35;100.00
2397;BME280;1209;48.410;9.054;2022-11-15T04:23:09;95838.94;;;6.41;100.00
2397;BME280;1209;48.410;9.054;2022-11-15T04:25:54;95831.81;;;6.43;100.00
2397;BME280;1209;48.410;9.054;2022-11-15T04:28:20;95830.16;;;6.26;100.00
2397;BME280;1209;48.410;9.054;2022-11-15T04:30:46;95824.66;;;6.37;100.00
2397;BME280;1209;48.410;9.054;2022-11-15T04:33:11;95825.97;;;6.49;100.00
2397;BME280;1209;48.410;9.054;2022-11-15T04:35:37;95822.88;;;6.46;100.00
2397;BME280;1209;48.410;9.054;2022-11-15T04:38:04;95822.09;;;6.45;100.00
2397;BME280;1209;48.410;9.054;2022-11-15T04:40:30;95820.94;;;6.56;100.00
2397;BME280;1209;48.410;9.054;2022-11-15T04:42:56;95823.38;;;6.57;100.00
2397;BME280;1209;48.410;9.054;2022-11-15T04:45:22;95823.38;;;6.57;100.00
2397;BME280;1209;48.410;9.054;2022-11-15T04:47:47;95816.09;;;6.53;100.00
2397;BME280;1209;48.410;9.054;2022-11-15T04:50:13;95824.34;;;6.48;100.00
2397;BME280;1209;48.410;9.054;2022-11-15T04:52:41;95820.31;;;6.54;100.00
2397;BME280;1209;48.410;9.054;2022-11-15T04:55:07;95821.28;;;6.53;100.00
2397;BME280;1209;48.410;9.054;2022-11-15T04:57:32;95815.59;;;6.49;100.00
2397;BME280;1209;48.410;9.054;2022-11-15T04:59:57;95818.34;;;6.48;100.00
2397;BME280;1209;48.410;9.054;2022-11-15T05:02:23;95808.94;;;6.39;100.00
2397;BME280;1209;48.410;9.054;2022-11-15T05:04:48;95816.75;;;6.55;100.00
2397;BME280;1209;48.410;9.054;2022-11-15T05:07:13;95812.19;;;6.57;100.00
2397;BME280;1209;48.410;9.054;2022-11-15T05:09:39;95807.66;;;6.59;100.00
2397;BME280;1209;48.410;9.054;2022-11-15T05:12:04;95808.81;;;6.65;100.00
2397;BME280;1209;48.410;9.054;2022-11-15T05:14:29;95806.03;;;6.58;100.00
2397;BME280;1209;48.410;9.054;2022-11-15T05:16:55;95800.84;;;6.58;100.00
2397;BME280;1209;48.410;9.054;2022-11-15T05:19:20;95806.53;;;6.61;100.00
2397;BME280;1209;48.410;9.054;2022-11-15T05:21:47;95803.78;;;6.55;100.00
2397;BME280;1209;48.410;9.054;2022-11-15T05:24:12;95799.38;;;6.55;100.00
2397;BME280;1209;48.410;9.054;2022-11-15T05:26:38;95801.19;;;6.55;100.00
2397;BME280;1209;48.410;9.054;2022-11-15T05:29:03;95798.09;;;6.51;100.00
2397;BME280;1209;48.410;9.054;2022-11-15T05:31:29;95793.41;;;6.55;100.00
2397;BME280;1209;48.410;9.054;2022-11-15T05:33:55;95800.03;;;6.49;100.00
2397;BME280;1209;48.410;9.054;2022-11-15T05:36:29;95797.28;;;6.51;100.00
2397;BME280;1209;48.410;9.054;2022-11-15T05:38:56;95792.09;;;6.51;100.00
2397;BME280;1209;48.410;9.054;2022-11-15T05:41:34;95790.31;;;6.35;100.00
2397;BME280;1209;48.410;9.054;2022-11-15T05:44:01;95788.19;;;6.47;100.00
2397;BME280;1209;48.410;9.054;2022-11-15T05:46:28;95793.41;;;6.55;100.00
2397;BME280;1209;48.410;9.054;2022-11-15T05:48:54;95797.31;;;6.67;100.00
2397;BME280;1209;48.410;9.054;2022-11-15T05:51:21;95791.13;;;6.60;100.00
2397;BME280;1209;48.410;9.054;2022-11-15T05:53:48;95791.28;;;6.34;100.00
2397;BME280;1209;48.410;9.054;2022-11-15T05:56:14;95789.00;;;6.39;100.00
2397;BME280;1209;48.410;9.054;2022-11-15T05:58:39;95795.97;;;6.39;100.00
2397;BME280;1209;48.410;9.054;2022-11-15T06:01:05;95795.31;;;6.28;100.00
2397;BME280;1209;48.410;9.054;2022-11-15T06:03:30;95797.25;;;6.26;100.00
2397;BME280;1209;48.410;9.054;2022-11-15T06:05:56;95789.16;;;6.29;100.00
2397;BME280;1209;48.410;9.054;2022-11-15T06:08:21;95793.53;;;6.29;100.00
2397;BME280;1209;48.410;9.054;2022-11-15T06:10:46;95792.06;;;6.26;100.00
2397;BME280;1209;48.410;9.054;2022-11-15T06:13:12;95789.97;;;6.30;100.00
2397;BME280;1209;48.410;9.054;2022-11-15T06:15:37;95791.91;;;6.28;100.00
2397;BME280;1209;48.410;9.054;2022-11-15T06:18:02;95792.91;;;6.35;100.00
2397;BME280;1209;48.410;9.054;2022-11-15T06:20:29;95794.53;;;6.44;100.00
2397;BME280;1209;48.410;9.054;2022-11-15T06:23:02;95798.09;;;6.35;100.00
2397;BME280;1209;48.410;9.054;2022-11-15T06:25:28;95797.44;;;6.41;100.00
2397;BME280;1209;48.410;9.054;2022-11-15T06:27:55;95787.53;;;6.28;100.00
2397;BME280;1209;48.410;9.054;2022-11-15T06:30:21;95796.63;;;6.41;100.00
2397;BME280;1209;48.410;9.054;2022-11-15T06:32:47;95798.25;;;6.42;100.00
2397;BME280;1209;48.410;9.054;2022-11-15T06:35:13;95793.84;;;6.18;100.00
2397;BME280;1209;48.410;9.054;2022-11-15T06:37:38;95795.66;;;6.34;100.00
2397;BME280;1209;48.410;9.054;2022-11-15T06:40:04;95789.81;;;6.40;100.00
2397;BME280;1209;48.410;9.054;2022-11-15T06:42:30;95793.41;;;6.55;100.00
2397;BME280;1209;48.410;9.054;2022-11-15T06:44:55;95798.09;;;6.51;100.00
2397;BME280;1209;48.410;9.054;2022-11-15T06:47:20;95802.47;;;6.59;100.00
2397;BME280;1209;48.410;9.054;2022-11-15T06:49:46;95798.63;;;6.63;100.00
2397;BME280;1209;48.410;9.054;2022-11-15T06:52:11;95794.53;;;6.52;100.00
2397;BME280;1209;48.410;9.054;2022-11-15T06:54:36;95790.66;;;6.65;100.00
2397;BME280;1209;48.410;9.054;2022-11-15T06:57:04;95790.78;;;6.55;100.00
2397;BME280;1209;48.410;9.054;2022-11-15T06:59:29;95789.53;;;6.67;100.00
2397;BME280;1209;48.410;9.054;2022-11-15T07:01:54;95797.16;;;6.77;100.00
2397;BME280;1209;48.410;9.054;2022-11-15T07:04:19;95788.72;;;6.83;100.00
2397;BME280;1209;48.410;9.054;2022-11-15T07:06:48;95799.25;;;6.89;100.00
2397;BME280;1209;48.410;9.054;2022-11-15T07:09:13;95801.69;;;6.91;100.00
2397;BME280;1209;48.410;9.054;2022-11-15T07:11:39;95806.38;;;6.95;100.00
2397;BME280;1209;48.410;9.054;2022-11-15T07:14:04;95802.16;;;6.86;100.00
2397;BME280;1209;48.410;9.054;2022-11-15T07:16:29;95793.56;;;6.94;100.00
2397;BME280;1209;48.410;9.054;2022-11-15T07:18:55;95800.22;;;6.97;100.00
2397;BME280;1209;48.410;9.054;2022-11-15T07:21:21;95798.91;;;7.01;100.00
2397;BME280;1209;48.410;9.054;2022-11-15T07:23:46;95802.81;;;7.13;100.00
2397;BME280;1209;48.410;9.054;2022-11-15T07:26:12;95793.72;;;7.17;100.00
2397;BME280;1209;48.410;9.054;2022-11-15T07:28:37;95787.84;;;7.23;100.00
2397;BME280;1209;48.410;9.054;2022-11-15T07:31:06;95785.22;;;7.39;100.00
2397;BME280;1209;48.410;9.054;2022-11-15T07:33:32;95783.88;;;7.51;100.00
2397;BME280;1209;48.410;9.054;2022-11-15T07:36:06;95788.56;;;7.64;100.00
2397;BME280;1209;48.410;9.054;2022-11-15T07:38:32;95780.56;;;7.74;100.00
2397;BME280;1209;48.410;9.054;2022-11-15T07:40:59;95782.09;;;7.91;100.00
2397;BME280;1209;48.410;9.054;2022-11-15T07:43:25;95782.69;;;8.01;100.00
2397;BME280;1209;48.410;9.054;2022-11-15T07:45:53;95787.25;;;8.07;100.00
2397;BME280;1209;48.410;9.054;2022-11-15T07:48:18;95778.47;;;8.08;100.00
2397;BME280;1209;48.410;9.054;2022-11-15T07:50:44;95778.28;;;8.10;100.00
2397;BME280;1209;48.410;9.054;2022-11-15T07:53:09;95777.78;;;8.14;100.00
2397;BME280;1209;48.410;9.054;2022-11-15T07:55:35;95783.09;;;8.21;100.00
2397;BME280;1209;48.410;9.054;2022-11-15T07:58:09;95780.09;;;8.32;100.00
2397;BME280;1209;48.410;9.054;2022-11-15T08:00:36;95773.44;;;8.38;100.00
2397;BME280;1209;48.410;9.054;2022-11-15T08:03:10;95776.03;;;8.38;100.00
2397;BME280;1209;48.410;9.054;2022-11-15T08:05:38;95778.63;;;8.38;100.00
2397;BME280;1209;48.410;9.054;2022-11-15T08:08:05;95770.31;;;8.42;100.00
2397;BME280;1209;48.410;9.054;2022-11-15T08:10:31;95772.38;;;8.47;100.00
2397;BME280;1209;48.410;9.054;2022-11-15T08:13:10;95770.41;;;8.49;100.00
2397;BME280;1209;48.410;9.054;2022-11-15T08:15:36;95776.09;;;8.52;100.00
2397;BME280;1209;48.410;9.054;2022-11-15T08:18:04;95768.94;;;8.55;100.00
2397;BME280;1209;48.410;9.054;2022-11-15T08:20:31;95775.41;;;8.59;100.00
2397;BME280;1209;48.410;9.054;2022-11-15T08:23:01;95779.00;;;8.58;100.00
2397;BME280;1209;48.410;9.054;2022-11-15T08:25:28;95775.53;;;8.65;100.00
2397;BME280;1209;48.410;9.054;2022-11-15T08:27:55;95778.75;;;8.67;100.00
2397;BME280;1209;48.410;9.054;2022-11-15T08:30:21;95770.22;;;8.59;100.00
2397;BME280;1209;48.410;9.054;2022-11-15T08:32:47;95775.44;;;8.73;100.00
2397;BME280;1209;48.410;9.054;2022-11-15T08:35:13;95768.03;;;8.85;100.00
2397;BME280;1209;48.410;9.054;2022-11-15T08:37:38;95763.09;;;8.90;100.00
2397;BME280;1209;48.410;9.054;2022-11-15T08:40:04;95757.53;;;8.93;100.00
2397;BME280;1209;48.410;9.054;2022-11-15T08:42:30;95764.94;;;9.04;100.00
2397;BME280;1209;48.410;9.054;2022-11-15T08:44:55;95761.53;;;9.19;100.00
2397;BME280;1209;48.410;9.054;2022-11-15T08:47:20;95760.19;;;9.37;100.00
2397;BME280;1209;48.410;9.054;2022-11-15T08:49:46;95757.81;;;9.51;100.00
2397;BME280;1209;48.410;9.054;2022-11-15T08:52:11;95752.31;;;9.60;100.00
2397;BME280;1209;48.410;9.054;2022-11-15T08:54:36;95748.25;;;9.72;100.00
2397;BME280;1209;48.410;9.054;2022-11-15T08:57:01;95754.44;;;9.86;100.00
2397;BME280;1209;48.410;9.054;2022-11-15T08:59:27;95746.34;;;9.96;100.00
2397;BME280;1209;48.410;9.054;2022-11-15T09:01:52;95742.81;;;10.03;100.00
2397;BME280;1209;48.410;9.054;2022-11-15T09:04:17;95736.84;;;10.09;100.00
2397;BME280;1209;48.410;9.054;2022-11-15T09:06:43;95735.31;;;10.15;100.00
2397;BME280;1209;48.410;9.054;2022-11-15T09:09:08;95736.53;;;10.19;100.00
2397;BME280;1209;48.410;9.054;2022-11-15T09:11:34;95728.06;;;10.32;100.00
2397;BME280;1209;48.410;9.054;2022-11-15T09:13:59;95729.69;;;10.33;100.00
2397;BME280;1209;48.410;9.054;2022-11-15T09:16:25;95728.03;;;10.47;100.00
2397;BME280;1209;48.410;9.054;2022-11-15T09:18:50;95742.00;;;10.60;100.00
2397;BME280;1209;48.410;9.054;2022-11-15T09:21:15;95747.84;;;10.62;100.00
2397;BME280;1209;48.410;9.054;2022-11-15T09:23:40;95734.84;;;10.69;100.00
2397;BME280;1209;48.410;9.054;2022-11-15T09:26:06;95733.00;;;10.63;100.00
2397;BME280;1209;48.410;9.054;2022-11-15T09:28:32;95737.69;;;10.74;100.00
2397;BME280;1209;48.410;9.054;2022-11-15T09:30:59;95738.38;;;10.83;100.00
2397;BME280;1209;48.410;9.054;2022-11-15T09:33:26;95741.97;;;10.82;100.00
2397;BME280;1209;48.410;9.054;2022-11-15T09:35:51;95746.44;;;10.88;100.00
2397;BME280;1209;48.410;9.054;2022-11-15T09:38:17;95737.25;;;10.92;100.00
2397;BME280;1209;48.410;9.054;2022-11-15T09:40:42;95750.97;;;11.00;100.00
2397;BME280;1209;48.410;9.054;2022-11-15T09:46:01;95737.31;;;10.77;100.00
2397;BME280;1209;48.410;9.054;2022-11-15T09:51:41;95733.66;;;10.71;100.00
2397;BME280;1209;48.410;9.054;2022-11-15T09:54:30;95739.06;;;10.91;100.00
2397;BME280;1209;48.410;9.054;2022-11-15T09:57:10;95730.97;;;10.86;100.00
2397;BME280;1209;48.410;9.054;2022-11-15T10:02:32;95724.25;;;10.98;100.00
2397;BME280;1209;48.410;9.054;2022-11-15T10:04:59;95723.56;;;10.90;100.00
2397;BME280;1209;48.410;9.054;2022-11-15T10:07:35;95723.69;;;10.82;100.00
2397;BME280;1209;48.410;9.054;2022-11-15T10:12:46;95708.25;;;11.15;100.00
2397;BME280;1209;48.410;9.054;2022-11-15T10:15:15;95714.59;;;11.33;100.00
2397;BME280;1209;48.410;9.054;2022-11-15T10:20:28;95714.03;;;11.38;100.00
2397;BME280;1209;48.410;9.054;2022-11-15T10:23:00;95706.25;;;11.51;100.00
2397;BME280;1209;48.410;9.054;2022-11-15T10:25:30;95700.47;;;11.62;100.00
2397;BME280;1209;48.410;9.054;2022-11-15T10:30:40;95690.66;;;11.71;100.00
2397;BME280;1209;48.410;9.054;2022-11-15T10:33:26;95700.09;;;11.72;100.00
2397;BME280;1209;48.410;9.054;2022-11-15T10:36:19;95692.47;;;11.77;100.00
2397;BME280;1209;48.410;9.054;2022-11-15T10:44:02;95696.41;;;11.53;100.00
2397;BME280;1209;48.410;9.054;2022-11-15T10:46:28;95692.63;;;11.62;100.00
2397;BME280;1209;48.410;9.054;2022-11-15T10:48:54;95687.81;;;11.66;100.00
2397;BME280;1209;48.410;9.054;2022-11-15T10:51:41;95683.22;;;11.75;100.00
2397;BME280;1209;48.410;9.054;2022-11-15T10:54:10;95688.66;;;11.73;100.00
2397;BME280;1209;48.410;9.054;2022-11-15T10:56:37;95679.00;;;11.74;100.00
2397;BME280;1209;48.410;9.054;2022-11-15T10:59:02;95683.47;;;11.80;100.00
2397;BME280;1209;48.410;9.054;2022-11-15T11:01:28;95682.91;;;11.84;100.00
2397;BME280;1209;48.410;9.054;2022-11-15T11:04:07;95677.09;;;11.95;100.00
2397;BME280;1209;48.410;9.054;2022-11-15T11:06:50;95677.91;;;12.03;100.00
2397;BME280;1209;48.410;9.054;2022-11-15T11:11:51;95668.06;;;12.05;100.00
2397;BME280;1209;48.410;9.054;2022-11-15T11:14:37;95668.44;;;12.02;100.00
2397;BME280;1209;48.410;9.054;2022-11-15T11:20:20;95657.56;;;11.98;100.00
2397;BME280;1209;48.410;9.054;2022-11-15T11:23:03;95654.38;;;12.09;100.00
2397;BME280;1209;48.410;9.054;2022-11-15T11:34:30;95639.06;;;12.26;100.00
2397;BME280;1209;48.410;9.054;2022-11-15T11:37:11;95627.84;;;12.39;100.00
2397;BME280;1209;48.410;9.054;2022-11-15T11:46:21;95620.16;;;12.44;100.00
2397;BME280;1209;48.410;9.054;2022-11-15T11:48:42;95610.50;;;12.51;100.00
2397;BME280;1209;48.410;9.054;2022-11-15T11:51:16;95617.13;;;12.60;100.00
2397;BME280;1209;48.410;9.054;2022-11-15T11:53:52;95615.13;;;12.62;100.00
2397;BME280;1209;48.410;9.054;2022-11-15T11:56:32;95612.09;;;12.65;100.00
2397;BME280;1209;48.410;9.054;2022-11-15T11:59:39;95608.06;;;12.69;100.00
2397;BME280;1209;48.410;9.054;2022-11-15T12:04:50;95603.22;;;12.79;100.00
2397;BME280;1209;48.410;9.054;2022-11-15T12:07:31;95604.03;;;12.80;100.00
2397;BME280;1209;48.410;9.054;2022-11-15T12:10:01;95609.28;;;12.80;100.00
2397;BME280;1209;48.410;9.054;2022-11-15T12:15:03;95595.56;;;12.71;100.00
2397;BME280;1209;48.410;9.054;2022-11-15T12:17:30;95592.94;;;12.71;100.00
2397;BME280;1209;48.410;9.054;2022-11-15T12:19:59;95599.38;;;12.69;100.00
2397;BME280;1209;48.410;9.054;2022-11-15T12:22:42;95595.97;;;12.61;100.00
2397;BME280;1209;48.410;9.054;2022-11-15T12:25:18;95589.53;;;12.57;100.00
2397;BME280;1209;48.410;9.054;2022-11-15T12:30:21;95584.28;;;12.71;100.00
2397;BME280;1209;48.410;9.054;2022-11-15T12:32:58;95589.91;;;12.74;100.00
2397;BME280;1209;48.410;9.054;2022-11-15T12:37:58;95575.81;;;12.69;100.00
2397;BME280;1209;48.410;9.054;2022-11-15T12:40:24;95576.22;;;12.79;100.00
2397;BME280;1209;48.410;9.054;2022-11-15T12:43:00;95572.59;;;12.80;100.00
2397;BME280;1209;48.410;9.054;2022-11-15T12:45:34;95572.00;;;12.78;100.00
2397;BME280;1209;48.410;9.054;2022-11-15T12:53:25;95564.06;;;12.98;100.00
2397;BME280;1209;48.410;9.054;2022-11-15T12:58:56;95562.63;;;13.02;100.00
2397;BME280;1209;48.410;9.054;2022-11-15T13:04:21;95551.91;;;13.10;100.00
2397;BME280;1209;48.410;9.054;2022-11-15T13:11:59;95543.84;;;13.11;100.00
2397;BME280;1209;48.410;9.054;2022-11-15T13:14:41;95543.44;;;13.14;100.00
2397;BME280;1209;48.410;9.054;2022-11-15T13:17:18;95532.97;;;13.08;100.00
2397;BME280;1209;48.410;9.054;2022-11-15T13:19:58;95525.56;;;12.98;100.00
2397;BME280;1209;48.410;9.054;2022-11-15T13:22:28;95525.13;;;13.01;100.00
2397;BME280;1209;48.410;9.054;2022-11-15T13:26:03;95518.28;;;13.00;100.00
2397;BME280;1209;48.410;9.054;2022-11-15T13:28:36;95513.22;;;13.05;100.00
2397;BME280;1209;48.410;9.054;2022-11-15T13:31:17;95512.63;;;13.03;100.00
2397;BME280;1209;48.410;9.054;2022-11-15T13:33:44;95507.56;;;13.08;100.00
2397;BME280;1209;48.410;9.054;2022-11-15T13:36:20;95502.06;;;13.16;100.00
2397;BME280;1209;48.410;9.054;2022-11-15T13:39:02;95494.63;;;13.27;100.00
2397;BME280;1209;48.410;9.054;2022-11-15T13:41:30;95491.19;;;13.26;100.00
2397;BME280;1209;48.410;9.054;2022-11-15T13:43:57;95480.28;;;13.29;100.00
2397;BME280;1209;48.410;9.054;2022-11-15T13:46:23;95475.41;;;13.33;100.00
2397;BME280;1209;48.410;9.054;2022-11-15T13:49:09;95467.88;;;13.43;100.00
2397;BME280;1209;48.410;9.054;2022-11-15T13:51:42;95463.59;;;13.48;100.00
2397;BME280;1209;48.410;9.054;2022-11-15T13:56:41;95460.19;;;13.48;100.00
2397;BME280;1209;48.410;9.054;2022-11-15T13:59:32;95456.34;;;13.50;100.00
2397;BME280;1209;48.410;9.054;2022-11-15T14:02:02;95456.13;;;13.52;100.00
2397;BME280;1209;48.410;9.054;2022-11-15T14:04:29;95454.72;;;13.49;100.00
2397;BME280;1209;48.410;9.054;2022-11-15T14:06:59;95448.41;;;13.57;100.00
2397;BME280;1209;48.410;9.054;2022-11-15T14:09:32;95441.19;;;13.52;100.00
2397;BME280;1209;48.410;9.054;2022-11-15T14:12:02;95440.25;;;13.40;100.00
2397;BME280;1209;48.410;9.054;2022-11-15T14:14:46;95444.03;;;13.51;100.00
2397;BME280;1209;48.410;9.054;2022-11-15T14:17:33;95437.97;;;13.50;100.00
2397;BME280;1209;48.410;9.054;2022-11-15T14:19:59;95435.28;;;13.57;100.00
2397;BME280;1209;48.410;9.054;2022-11-15T14:22:29;95431.16;;;13.43;100.00
2397;BME280;1209;48.410;9.054;2022-11-15T14:27:38;95429.66;;;13.29;100.00
2397;BME280;1209;48.410;9.054;2022-11-15T14:30:04;95429.66;;;13.22;100.00
2397;BME280;1209;48.410;9.054;2022-11-15T14:32:40;95426.66;;;13.18;100.00
2397;BME280;1209;48.410;9.054;2022-11-15T14:35:19;95429.66;;;13.22;100.00
2397;BME280;1209;48.410;9.054;2022-11-15T14:37:45;95419.47;;;13.07;100.00
2397;BME280;1209;48.410;9.054;2022-11-15T14:40:16;95408.41;;;12.99;100.00
2397;BME280;1209;48.410;9.054;2022-11-15T14:42:44;95402.63;;;12.90;100.00
2397;BME280;1209;48.410;9.054;2022-11-15T14:45:15;95411.69;;;12.94;100.00
2397;BME280;1209;48.410;9.054;2022-11-15T14:47:42;95411.09;;;12.92;100.00
2397;BME280;1209;48.410;9.054;2022-11-15T14:50:14;95411.53;;;12.82;100.00
2397;BME280;1209;48.410;9.054;2022-11-15T14:52:40;95414.97;;;12.76;100.00
2397;BME280;1209;48.410;9.054;2022-11-15T14:55:23;95415.38;;;12.73;100.00
2397;BME280;1209;48.410;9.054;2022-11-15T14:57:49;95411.16;;;12.72;100.00
2397;BME280;1209;48.410;9.054;2022-11-15T15:00:15;95406.53;;;12.68;100.00
2397;BME280;1209;48.410;9.054;2022-11-15T15:02:42;95408.44;;;12.54;100.00
2397;BME280;1209;48.410;9.054;2022-11-15T15:07:41;95405.66;;;12.42;100.00
2397;BME280;1209;48.410;9.054;2022-11-15T15:10:07;95403.63;;;12.44;100.00
2397;BME280;1209;48.410;9.054;2022-11-15T15:12:33;95408.25;;;12.49;100.00
2397;BME280;1209;48.410;9.054;2022-11-15T15:14:59;95389.94;;;12.42;100.00
2397;BME280;1209;48.410;9.054;2022-11-15T15:17:24;95380.13;;;12.18;100.00
2397;BME280;1209;48.410;9.054;2022-11-15T15:19:50;95388.56;;;12.26;100.00
2397;BME280;1209;48.410;9.054;2022-11-15T15:22:17;95375.50;;;12.20;100.00
2397;BME280;1209;48.410;9.054;2022-11-15T15:24:44;95375.28;;;12.21;100.00
2397;BME280;1209;48.410;9.054;2022-11-15T15:27:10;95374.53;;;12.14;100.00
2397;BME280;1209;48.410;9.054;2022-11-15T15:29:36;95370.50;;;12.12;100.00
2397;BME280;1209;48.410;9.054;2022-11-15T15:32:01;95369.69;;;12.11;100.00